Yass Linton Hostel, New South Wales

1:28 AM AEDT on March 29, 2015 (GMT +1100)
Urban environment | | Change Station
CLOSE
Current Station
Personal Weather Station
Location: Yass, NEW SOUTH WALES
Elevation: 1709 ft
Nearby Weather Stations

Elev 1709 ft 34.85 °S, 148.91 °E | Updated 21 seconds ago

Clear
Clear
49.6 °F
Feels Like 50 °F
N
2.2
Wind Variable Wind from SE
Gusts 3.8 mph

Today
High -- | Low -- °F
--% Chance of Precip.
Yesterday
High -- | Low -- °F
Precip. -- in
7:13 AM 7:04 PM
Waxing Gibbous, 62% visible
Pressure 30.21 in
Visibility 6.2 miles
Clouds
Windchill 50 °F
Dew Point 43 °F
Humidity 77%
Rainfall 0.00 in
Snow Depth Not available.
UV Not available.
Pollen Not available.
Air Quality Not available.
Flu Activity Not available.
METAR YSCB 281400Z AUTO 12003KT 9999 // NCD 09/07 Q1023

More Conditions Fewer Conditions

Pressure 30.21 in
Visibility 6.2 miles
Clouds
Windchill 50 °F
Dew Point 43 °F
Humidity 77%
Rainfall 0.00 in
Snow Depth Not available.
UV Not available.
Pollen Not available.
Air Quality Not available.
Flu Activity Not available.
METAR YSCB 281400Z AUTO 12003KT 9999 // NCD 09/07 Q1023

More Conditions Fewer Conditions

10-Day Weather Forecast

Almanac

Astronomy

Mar. 29, 2015 Rise Set
Actual Time
Civil Twilight
Nautical Twilight
Astronomical Twilight
Moon
Length of Visible Light
Length of Day
Tomorrow will be .
, % of the Moon is Illuminated

Today's Extremes

Country Highs Country Lows

Community

WunderPhotos

Upload Photos

1,808,984 photos uploaded!

WunderBlogs® & News

Nearby

Air Quality

  Air Quality AQ Index Pollutant
Not available.

Snow Depth

Station Depth Elevation

Earthquake Activity

City Distance Mag. Time & Date
Minimum magnitude displayed is 2.5.

Coastal Water Temperatures

Place Temperature

Stations

Nearby Weather Stations

Station Location Temp. Windchill Dew Point Humidity Wind Precip. Elev Updated Type